sensor_id;sensor_type;location;lat;lon;timestamp;temperature;humidity
18456;DHT22;9357;49.900;8.208;2022-09-09T00:01:08;16.90;99.90
18456;DHT22;9357;49.900;8.208;2022-09-09T00:02:46;16.90;99.90
18456;DHT22;9357;49.900;8.208;2022-09-09T00:04:26;16.90;99.90
18456;DHT22;9357;49.900;8.208;2022-09-09T00:06:05;16.80;99.90
18456;DHT22;9357;49.900;8.208;2022-09-09T00:07:45;16.80;99.90
18456;DHT22;9357;49.900;8.208;2022-09-09T00:09:22;16.80;99.90
18456;DHT22;9357;49.900;8.208;2022-09-09T00:10:59;16.80;99.90
18456;DHT22;9357;49.900;8.208;2022-09-09T00:12:38;16.70;99.90
18456;DHT22;9357;49.900;8.208;2022-09-09T00:14:22;16.80;99.90
18456;DHT22;9357;49.900;8.208;2022-09-09T00:16:00;16.70;99.90
18456;DHT22;9357;49.900;8.208;2022-09-09T00:17:40;16.60;99.90
18456;DHT22;9357;49.900;8.208;2022-09-09T00:19:20;16.60;99.90
18456;DHT22;9357;49.900;8.208;2022-09-09T00:20:58;16.60;99.90
18456;DHT22;9357;49.900;8.208;2022-09-09T00:22:36;16.50;99.90
18456;DHT22;9357;49.900;8.208;2022-09-09T00:24:22;16.50;99.90
18456;DHT22;9357;49.900;8.208;2022-09-09T00:26:04;16.50;99.90
18456;DHT22;9357;49.900;8.208;2022-09-09T00:27:41;16.50;99.90
18456;DHT22;9357;49.900;8.208;2022-09-09T00:29:22;16.50;99.90
18456;DHT22;9357;49.900;8.208;2022-09-09T00:31:04;16.50;99.90
18456;DHT22;9357;49.900;8.208;2022-09-09T00:32:43;16.40;99.90
18456;DHT22;9357;49.900;8.208;2022-09-09T00:34:20;16.40;99.90
18456;DHT22;9357;49.900;8.208;2022-09-09T00:35:57;16.40;99.90
18456;DHT22;9357;49.900;8.208;2022-09-09T00:37:29;16.40;99.90
18456;DHT22;9357;49.900;8.208;2022-09-09T00:39:05;16.30;99.90
18456;DHT22;9357;49.900;8.208;2022-09-09T00:40:45;16.30;99.90
18456;DHT22;9357;49.900;8.208;2022-09-09T00:42:24;16.30;99.90
18456;DHT22;9357;49.900;8.208;2022-09-09T00:44:06;16.30;99.90
18456;DHT22;9357;49.900;8.208;2022-09-09T00:46:03;16.30;99.90
18456;DHT22;9357;49.900;8.208;2022-09-09T00:47:43;16.30;99.90
18456;DHT22;9357;49.900;8.208;2022-09-09T00:49:25;16.30;99.90
18456;DHT22;9357;49.900;8.208;2022-09-09T00:51:02;16.20;99.90
18456;DHT22;9357;49.900;8.208;2022-09-09T00:52:44;16.20;99.90
18456;DHT22;9357;49.900;8.208;2022-09-09T00:54:39;16.20;99.90
18456;DHT22;9357;49.900;8.208;2022-09-09T00:56:14;16.10;99.90
18456;DHT22;9357;49.900;8.208;2022-09-09T00:57:51;16.10;99.90
18456;DHT22;9357;49.900;8.208;2022-09-09T00:59:31;16.10;99.90
18456;DHT22;9357;49.900;8.208;2022-09-09T01:01:11;16.10;99.90
18456;DHT22;9357;49.900;8.208;2022-09-09T01:03:02;16.10;99.90
18456;DHT22;9357;49.900;8.208;2022-09-09T01:04:47;16.10;99.90
18456;DHT22;9357;49.900;8.208;2022-09-09T01:06:24;16.10;99.90
18456;DHT22;9357;49.900;8.208;2022-09-09T01:08:00;16.00;99.90
18456;DHT22;9357;49.900;8.208;2022-09-09T01:09:41;16.10;99.90
18456;DHT22;9357;49.900;8.208;2022-09-09T01:11:21;16.10;99.90
18456;DHT22;9357;49.900;8.208;2022-09-09T01:12:58;16.10;99.90
18456;DHT22;9357;49.900;8.208;2022-09-09T01:14:40;16.10;99.90
18456;DHT22;9357;49.900;8.208;2022-09-09T01:16:14;16.10;99.90
18456;DHT22;9357;49.900;8.208;2022-09-09T01:17:53;16.10;99.90
18456;DHT22;9357;49.900;8.208;2022-09-09T01:19:36;16.10;99.90
18456;DHT22;9357;49.900;8.208;2022-09-09T01:21:18;16.20;99.90
18456;DHT22;9357;49.900;8.208;2022-09-09T01:23:05;16.20;99.90
18456;DHT22;9357;49.900;8.208;2022-09-09T01:25:01;16.20;99.90
18456;DHT22;9357;49.900;8.208;2022-09-09T01:26:39;16.20;99.90
18456;DHT22;9357;49.900;8.208;2022-09-09T01:28:16;16.20;99.90
18456;DHT22;9357;49.900;8.208;2022-09-09T01:29:50;16.20;99.90
18456;DHT22;9357;49.900;8.208;2022-09-09T01:31:28;16.20;99.90
18456;DHT22;9357;49.900;8.208;2022-09-09T01:33:03;16.20;99.90
18456;DHT22;9357;49.900;8.208;2022-09-09T01:34:39;16.20;99.90
18456;DHT22;9357;49.900;8.208;2022-09-09T01:36:21;16.20;99.90
18456;DHT22;9357;49.900;8.208;2022-09-09T01:37:57;16.20;99.90
18456;DHT22;9357;49.900;8.208;2022-09-09T01:39:29;16.20;99.90
18456;DHT22;9357;49.900;8.208;2022-09-09T01:41:03;16.20;99.90
18456;DHT22;9357;49.900;8.208;2022-09-09T01:42:36;16.20;99.90
18456;DHT22;9357;49.900;8.208;2022-09-09T01:44:10;16.20;99.90
18456;DHT22;9357;49.900;8.208;2022-09-09T01:45:42;16.20;99.90
18456;DHT22;9357;49.900;8.208;2022-09-09T01:47:16;16.20;99.90
18456;DHT22;9357;49.900;8.208;2022-09-09T01:48:50;16.20;99.90
18456;DHT22;9357;49.900;8.208;2022-09-09T01:50:22;16.20;99.90
18456;DHT22;9357;49.900;8.208;2022-09-09T01:51:56;16.20;99.90
18456;DHT22;9357;49.900;8.208;2022-09-09T01:53:29;16.20;99.90
18456;DHT22;9357;49.900;8.208;2022-09-09T01:55:01;16.20;99.90
18456;DHT22;9357;49.900;8.208;2022-09-09T01:56:40;16.30;99.90
18456;DHT22;9357;49.900;8.208;2022-09-09T01:58:25;16.30;99.90
18456;DHT22;9357;49.900;8.208;2022-09-09T02:00:04;16.30;99.90
18456;DHT22;9357;49.900;8.208;2022-09-09T02:01:49;16.30;99.90
18456;DHT22;9357;49.900;8.208;2022-09-09T02:03:27;16.30;99.90
18456;DHT22;9357;49.900;8.208;2022-09-09T02:05:10;16.30;99.90
18456;DHT22;9357;49.900;8.208;2022-09-09T02:06:46;16.30;99.90
18456;DHT22;9357;49.900;8.208;2022-09-09T02:08:23;16.30;99.90
18456;DHT22;9357;49.900;8.208;2022-09-09T02:10:00;16.40;99.90
18456;DHT22;9357;49.900;8.208;2022-09-09T02:11:34;16.40;99.90
18456;DHT22;9357;49.900;8.208;2022-09-09T02:13:09;16.30;99.90
18456;DHT22;9357;49.900;8.208;2022-09-09T02:14:48;16.40;99.90
18456;DHT22;9357;49.900;8.208;2022-09-09T02:16:24;16.30;99.90
18456;DHT22;9357;49.900;8.208;2022-09-09T02:18:00;16.40;99.90
18456;DHT22;9357;49.900;8.208;2022-09-09T02:19:37;16.40;99.90
18456;DHT22;9357;49.900;8.208;2022-09-09T02:21:12;16.40;99.90
18456;DHT22;9357;49.900;8.208;2022-09-09T02:22:49;16.40;99.90
18456;DHT22;9357;49.900;8.208;2022-09-09T02:24:23;16.40;99.90
18456;DHT22;9357;49.900;8.208;2022-09-09T02:25:58;16.40;99.90
18456;DHT22;9357;49.900;8.208;2022-09-09T02:27:31;16.40;99.90
18456;DHT22;9357;49.900;8.208;2022-09-09T02:29:06;16.40;99.90
18456;DHT22;9357;49.900;8.208;2022-09-09T02:30:42;16.40;99.90
18456;DHT22;9357;49.900;8.208;2022-09-09T02:32:21;16.40;99.90
18456;DHT22;9357;49.900;8.208;2022-09-09T02:33:57;16.40;99.90
18456;DHT22;9357;49.900;8.208;2022-09-09T02:35:32;16.40;99.90
18456;DHT22;9357;49.900;8.208;2022-09-09T02:37:10;16.40;99.90
18456;DHT22;9357;49.900;8.208;2022-09-09T02:38:46;16.40;99.90
18456;DHT22;9357;49.900;8.208;2022-09-09T02:40:22;16.40;99.90
18456;DHT22;9357;49.900;8.208;2022-09-09T02:41:55;16.40;99.90
18456;DHT22;9357;49.900;8.208;2022-09-09T02:43:31;16.40;99.90
18456;DHT22;9357;49.900;8.208;2022-09-09T02:45:03;16.40;99.90
18456;DHT22;9357;49.900;8.208;2022-09-09T02:47:02;16.40;99.90
18456;DHT22;9357;49.900;8.208;2022-09-09T02:48:45;16.40;99.90
18456;DHT22;9357;49.900;8.208;2022-09-09T02:50:25;16.40;99.90
18456;DHT22;9357;49.900;8.208;2022-09-09T02:52:05;16.40;99.90
18456;DHT22;9357;49.900;8.208;2022-09-09T02:53:43;16.40;99.90
18456;DHT22;9357;49.900;8.208;2022-09-09T02:55:24;16.40;99.90
18456;DHT22;9357;49.900;8.208;2022-09-09T02:57:03;16.40;99.90
18456;DHT22;9357;49.900;8.208;2022-09-09T02:58:39;16.40;99.90
18456;DHT22;9357;49.900;8.208;2022-09-09T03:00:12;16.30;99.90
18456;DHT22;9357;49.900;8.208;2022-09-09T03:01:47;16.30;99.90
18456;DHT22;9357;49.900;8.208;2022-09-09T03:03:20;16.30;99.90
18456;DHT22;9357;49.900;8.208;2022-09-09T03:04:53;16.30;99.90
18456;DHT22;9357;49.900;8.208;2022-09-09T03:06:26;16.30;99.90
18456;DHT22;9357;49.900;8.208;2022-09-09T03:07:59;16.20;99.90
18456;DHT22;9357;49.900;8.208;2022-09-09T03:09:32;16.20;99.90
18456;DHT22;9357;49.900;8.208;2022-09-09T03:11:04;16.20;99.90
18456;DHT22;9357;49.900;8.208;2022-09-09T03:12:37;16.20;99.90
18456;DHT22;9357;49.900;8.208;2022-09-09T03:14:10;16.20;99.90
18456;DHT22;9357;49.900;8.208;2022-09-09T03:15:42;16.20;99.90
18456;DHT22;9357;49.900;8.208;2022-09-09T03:17:16;16.30;99.90
18456;DHT22;9357;49.900;8.208;2022-09-09T03:18:49;16.30;99.90
18456;DHT22;9357;49.900;8.208;2022-09-09T03:20:22;16.30;99.90
18456;DHT22;9357;49.900;8.208;2022-09-09T03:21:55;16.30;99.90
18456;DHT22;9357;49.900;8.208;2022-09-09T03:23:28;16.30;99.90
18456;DHT22;9357;49.900;8.208;2022-09-09T03:25:00;16.30;99.90
18456;DHT22;9357;49.900;8.208;2022-09-09T03:26:34;16.40;99.90
18456;DHT22;9357;49.900;8.208;2022-09-09T03:28:07;16.30;99.90
18456;DHT22;9357;49.900;8.208;2022-09-09T03:29:39;16.30;99.90
18456;DHT22;9357;49.900;8.208;2022-09-09T03:31:11;16.40;99.90
18456;DHT22;9357;49.900;8.208;2022-09-09T03:32:45;16.40;99.90
18456;DHT22;9357;49.900;8.208;2022-09-09T03:34:19;16.30;99.90
18456;DHT22;9357;49.900;8.208;2022-09-09T03:35:52;16.40;99.90
18456;DHT22;9357;49.900;8.208;2022-09-09T03:37:28;16.40;99.90
18456;DHT22;9357;49.900;8.208;2022-09-09T03:39:00;16.40;99.90
18456;DHT22;9357;49.900;8.208;2022-09-09T03:40:34;16.40;99.90
18456;DHT22;9357;49.900;8.208;2022-09-09T03:42:07;16.40;99.90
18456;DHT22;9357;49.900;8.208;2022-09-09T03:43:38;16.40;99.90
18456;DHT22;9357;49.900;8.208;2022-09-09T03:45:11;16.50;99.90
18456;DHT22;9357;49.900;8.208;2022-09-09T03:46:44;16.40;99.90
18456;DHT22;9357;49.900;8.208;2022-09-09T03:48:18;16.50;99.90
18456;DHT22;9357;49.900;8.208;2022-09-09T03:49:51;16.50;99.90
18456;DHT22;9357;49.900;8.208;2022-09-09T03:51:24;16.50;99.90
18456;DHT22;9357;49.900;8.208;2022-09-09T03:52:57;16.50;99.90
18456;DHT22;9357;49.900;8.208;2022-09-09T03:54:30;16.50;99.90
18456;DHT22;9357;49.900;8.208;2022-09-09T03:56:02;16.50;99.90
18456;DHT22;9357;49.900;8.208;2022-09-09T03:57:35;16.50;99.90
18456;DHT22;9357;49.900;8.208;2022-09-09T03:59:08;16.50;99.90
18456;DHT22;9357;49.900;8.208;2022-09-09T04:00:40;16.50;99.90
18456;DHT22;9357;49.900;8.208;2022-09-09T04:02:14;16.60;99.90
18456;DHT22;9357;49.900;8.208;2022-09-09T04:03:48;16.60;99.90
18456;DHT22;9357;49.900;8.208;2022-09-09T04:05:21;16.50;99.90
18456;DHT22;9357;49.900;8.208;2022-09-09T04:06:53;16.60;99.90
18456;DHT22;9357;49.900;8.208;2022-09-09T04:08:26;16.60;99.90
18456;DHT22;9357;49.900;8.208;2022-09-09T04:09:59;16.60;99.90
18456;DHT22;9357;49.900;8.208;2022-09-09T04:11:32;16.60;99.90
18456;DHT22;9357;49.900;8.208;2022-09-09T04:13:05;16.60;99.90
18456;DHT22;9357;49.900;8.208;2022-09-09T04:14:38;16.60;99.90
18456;DHT22;9357;49.900;8.208;2022-09-09T04:16:11;16.60;99.90
18456;DHT22;9357;49.900;8.208;2022-09-09T04:17:44;16.60;99.90
18456;DHT22;9357;49.900;8.208;2022-09-09T04:19:18;16.60;99.90
18456;DHT22;9357;49.900;8.208;2022-09-09T04:20:52;16.60;99.90
18456;DHT22;9357;49.900;8.208;2022-09-09T04:22:25;16.50;99.90
18456;DHT22;9357;49.900;8.208;2022-09-09T04:23:58;16.60;99.90
18456;DHT22;9357;49.900;8.208;2022-09-09T04:25:31;16.60;99.90
18456;DHT22;9357;49.900;8.208;2022-09-09T04:27:05;16.60;99.90
18456;DHT22;9357;49.900;8.208;2022-09-09T04:28:38;16.60;99.90
18456;DHT22;9357;49.900;8.208;2022-09-09T04:30:11;16.60;99.90
18456;DHT22;9357;49.900;8.208;2022-09-09T04:31:44;16.60;99.90
18456;DHT22;9357;49.900;8.208;2022-09-09T04:33:17;16.60;99.90
18456;DHT22;9357;49.900;8.208;2022-09-09T04:34:50;16.60;99.90
18456;DHT22;9357;49.900;8.208;2022-09-09T04:36:23;16.60;99.90
18456;DHT22;9357;49.900;8.208;2022-09-09T04:37:56;16.60;99.90
18456;DHT22;9357;49.900;8.208;2022-09-09T04:39:28;16.60;99.90
18456;DHT22;9357;49.900;8.208;2022-09-09T04:41:01;16.60;99.90
18456;DHT22;9357;49.900;8.208;2022-09-09T04:42:35;16.50;99.90
18456;DHT22;9357;49.900;8.208;2022-09-09T04:44:08;16.50;99.90
18456;DHT22;9357;49.900;8.208;2022-09-09T04:45:40;16.50;99.90
18456;DHT22;9357;49.900;8.208;2022-09-09T04:47:12;16.50;99.90
18456;DHT22;9357;49.900;8.208;2022-09-09T04:48:45;16.50;99.90
18456;DHT22;9357;49.900;8.208;2022-09-09T04:50:20;16.50;99.90
18456;DHT22;9357;49.900;8.208;2022-09-09T04:51:52;16.50;99.90
18456;DHT22;9357;49.900;8.208;2022-09-09T04:53:25;16.50;99.90
18456;DHT22;9357;49.900;8.208;2022-09-09T04:54:58;16.50;99.90
18456;DHT22;9357;49.900;8.208;2022-09-09T04:56:32;16.50;99.90
18456;DHT22;9357;49.900;8.208;2022-09-09T04:58:05;16.50;99.90
18456;DHT22;9357;49.900;8.208;2022-09-09T04:59:38;16.50;99.90
18456;DHT22;9357;49.900;8.208;2022-09-09T05:01:13;16.50;99.90
18456;DHT22;9357;49.900;8.208;2022-09-09T05:02:46;16.50;99.90
18456;DHT22;9357;49.900;8.208;2022-09-09T05:04:19;16.50;99.90
18456;DHT22;9357;49.900;8.208;2022-09-09T05:05:53;16.50;99.90
18456;DHT22;9357;49.900;8.208;2022-09-09T05:07:26;16.50;99.90
18456;DHT22;9357;49.900;8.208;2022-09-09T05:09:00;16.50;99.90
18456;DHT22;9357;49.900;8.208;2022-09-09T05:10:33;16.50;99.90
18456;DHT22;9357;49.900;8.208;2022-09-09T05:12:07;16.50;99.90
18456;DHT22;9357;49.900;8.208;2022-09-09T05:13:39;16.50;99.90
18456;DHT22;9357;49.900;8.208;2022-09-09T05:15:12;16.50;99.90
18456;DHT22;9357;49.900;8.208;2022-09-09T05:16:45;16.50;99.90
18456;DHT22;9357;49.900;8.208;2022-09-09T05:18:18;16.50;99.90
18456;DHT22;9357;49.900;8.208;2022-09-09T05:19:51;16.40;99.90
18456;DHT22;9357;49.900;8.208;2022-09-09T05:21:25;16.40;99.90
18456;DHT22;9357;49.900;8.208;2022-09-09T05:22:59;16.40;99.90
18456;DHT22;9357;49.900;8.208;2022-09-09T05:24:34;16.40;99.90
18456;DHT22;9357;49.900;8.208;2022-09-09T05:26:12;16.40;99.90
18456;DHT22;9357;49.900;8.208;2022-09-09T05:27:48;16.40;99.90
18456;DHT22;9357;49.900;8.208;2022-09-09T05:29:21;16.40;99.90
18456;DHT22;9357;49.900;8.208;2022-09-09T05:30:57;16.40;99.90
18456;DHT22;9357;49.900;8.208;2022-09-09T05:32:31;16.40;99.90
18456;DHT22;9357;49.900;8.208;2022-09-09T05:34:04;16.40;99.90
18456;DHT22;9357;49.900;8.208;2022-09-09T05:35:37;16.40;99.90
18456;DHT22;9357;49.900;8.208;2022-09-09T05:37:11;16.40;99.90
18456;DHT22;9357;49.900;8.208;2022-09-09T05:38:44;16.40;99.90
18456;DHT22;9357;49.900;8.208;2022-09-09T05:40:17;16.40;99.90
18456;DHT22;9357;49.900;8.208;2022-09-09T05:41:50;16.40;99.90
18456;DHT22;9357;49.900;8.208;2022-09-09T05:43:24;16.40;99.90
18456;DHT22;9357;49.900;8.208;2022-09-09T05:44:57;16.40;99.90
18456;DHT22;9357;49.900;8.208;2022-09-09T05:46:29;16.40;99.90
18456;DHT22;9357;49.900;8.208;2022-09-09T05:48:02;16.40;99.90
18456;DHT22;9357;49.900;8.208;2022-09-09T05:49:35;16.50;99.90
18456;DHT22;9357;49.900;8.208;2022-09-09T05:51:09;16.40;99.90
18456;DHT22;9357;49.900;8.208;2022-09-09T05:52:45;16.50;99.90
18456;DHT22;9357;49.900;8.208;2022-09-09T05:54:19;16.50;99.90
18456;DHT22;9357;49.900;8.208;2022-09-09T05:55:59;16.50;99.90
18456;DHT22;9357;49.900;8.208;2022-09-09T05:57:32;16.50;99.90
18456;DHT22;9357;49.900;8.208;2022-09-09T05:59:04;16.50;99.90
18456;DHT22;9357;49.900;8.208;2022-09-09T06:00:37;16.50;99.90
18456;DHT22;9357;49.900;8.208;2022-09-09T06:02:10;16.50;99.90
18456;DHT22;9357;49.900;8.208;2022-09-09T06:03:45;16.50;99.90
18456;DHT22;9357;49.900;8.208;2022-09-09T06:05:18;16.60;99.90
18456;DHT22;9357;49.900;8.208;2022-09-09T06:06:51;16.60;99.90
18456;DHT22;9357;49.900;8.208;2022-09-09T06:08:25;16.60;99.90
18456;DHT22;9357;49.900;8.208;2022-09-09T06:09:58;16.60;99.90
18456;DHT22;9357;49.900;8.208;2022-09-09T06:11:31;16.60;99.90
18456;DHT22;9357;49.900;8.208;2022-09-09T06:13:03;16.60;99.90
18456;DHT22;9357;49.900;8.208;2022-09-09T06:14:35;16.70;99.90
18456;DHT22;9357;49.900;8.208;2022-09-09T06:16:14;16.70;99.90
18456;DHT22;9357;49.900;8.208;2022-09-09T06:17:46;16.70;99.90
18456;DHT22;9357;49.900;8.208;2022-09-09T06:19:18;16.80;99.90
18456;DHT22;9357;49.900;8.208;2022-09-09T06:20:56;16.80;99.90
18456;DHT22;9357;49.900;8.208;2022-09-09T06:22:29;16.80;99.90
18456;DHT22;9357;49.900;8.208;2022-09-09T06:24:04;16.80;99.90
18456;DHT22;9357;49.900;8.208;2022-09-09T06:25:36;16.90;99.90
18456;DHT22;9357;49.900;8.208;2022-09-09T06:27:12;17.00;99.90
18456;DHT22;9357;49.900;8.208;2022-09-09T06:28:45;17.00;99.90
18456;DHT22;9357;49.900;8.208;2022-09-09T06:30:19;17.10;99.90
18456;DHT22;9357;49.900;8.208;2022-09-09T06:31:51;17.10;99.90
18456;DHT22;9357;49.900;8.208;2022-09-09T06:33:24;17.20;99.90
18456;DHT22;9357;49.900;8.208;2022-09-09T06:34:57;17.20;99.90
18456;DHT22;9357;49.900;8.208;2022-09-09T06:36:34;17.20;99.90
18456;DHT22;9357;49.900;8.208;2022-09-09T06:38:08;17.30;99.90
18456;DHT22;9357;49.900;8.208;2022-09-09T06:39:42;17.30;99.90
18456;DHT22;9357;49.900;8.208;2022-09-09T06:41:16;17.40;99.90
18456;DHT22;9357;49.900;8.208;2022-09-09T06:42:49;17.40;99.90
18456;DHT22;9357;49.900;8.208;2022-09-09T06:44:22;17.40;99.90
18456;DHT22;9357;49.900;8.208;2022-09-09T06:45:56;17.40;99.90
18456;DHT22;9357;49.900;8.208;2022-09-09T06:47:29;17.50;99.90
18456;DHT22;9357;49.900;8.208;2022-09-09T06:49:02;17.50;99.90
18456;DHT22;9357;49.900;8.208;2022-09-09T06:50:35;17.50;99.90
18456;DHT22;9357;49.900;8.208;2022-09-09T06:52:08;17.60;99.90
18456;DHT22;9357;49.900;8.208;2022-09-09T06:53:42;17.60;99.90
18456;DHT22;9357;49.900;8.208;2022-09-09T06:55:16;17.60;99.90
18456;DHT22;9357;49.900;8.208;2022-09-09T06:56:49;17.60;99.90
18456;DHT22;9357;49.900;8.208;2022-09-09T06:58:22;17.70;99.90
18456;DHT22;9357;49.900;8.208;2022-09-09T06:59:55;17.70;99.90
18456;DHT22;9357;49.900;8.208;2022-09-09T07:01:29;17.70;99.90
18456;DHT22;9357;49.900;8.208;2022-09-09T07:03:03;17.80;99.90
18456;DHT22;9357;49.900;8.208;2022-09-09T07:04:36;17.80;99.90
18456;DHT22;9357;49.900;8.208;2022-09-09T07:06:13;17.80;99.90
18456;DHT22;9357;49.900;8.208;2022-09-09T07:07:48;17.90;99.90
18456;DHT22;9357;49.900;8.208;2022-09-09T07:09:21;17.90;99.90
18456;DHT22;9357;49.900;8.208;2022-09-09T07:11:01;17.90;99.90
18456;DHT22;9357;49.900;8.208;2022-09-09T07:12:42;18.00;99.90
18456;DHT22;9357;49.900;8.208;2022-09-09T07:14:15;18.10;99.90
18456;DHT22;9357;49.900;8.208;2022-09-09T07:15:48;18.10;99.90
18456;DHT22;9357;49.900;8.208;2022-09-09T07:17:20;18.20;99.90
18456;DHT22;9357;49.900;8.208;2022-09-09T07:18:53;18.20;99.90
18456;DHT22;9357;49.900;8.208;2022-09-09T07:20:29;18.30;99.90
18456;DHT22;9357;49.900;8.208;2022-09-09T07:22:01;18.30;99.90
18456;DHT22;9357;49.900;8.208;2022-09-09T07:23:35;18.40;99.90
18456;DHT22;9357;49.900;8.208;2022-09-09T07:25:08;18.40;99.90
18456;DHT22;9357;49.900;8.208;2022-09-09T07:26:42;18.50;99.90
18456;DHT22;9357;49.900;8.208;2022-09-09T07:28:15;18.50;99.90
18456;DHT22;9357;49.900;8.208;2022-09-09T07:29:48;18.50;99.90
18456;DHT22;9357;49.900;8.208;2022-09-09T07:31:24;18.60;99.90
18456;DHT22;9357;49.900;8.208;2022-09-09T07:32:57;18.60;99.90
18456;DHT22;9357;49.900;8.208;2022-09-09T07:34:30;18.60;99.90
18456;DHT22;9357;49.900;8.208;2022-09-09T07:36:05;18.70;99.90
18456;DHT22;9357;49.900;8.208;2022-09-09T07:37:38;18.70;99.90
18456;DHT22;9357;49.900;8.208;2022-09-09T07:39:13;18.70;99.90
18456;DHT22;9357;49.900;8.208;2022-09-09T07:40:48;18.80;99.90
18456;DHT22;9357;49.900;8.208;2022-09-09T07:42:23;18.80;99.90
18456;DHT22;9357;49.900;8.208;2022-09-09T07:43:56;18.90;99.90
18456;DHT22;9357;49.900;8.208;2022-09-09T07:45:30;18.90;99.90
18456;DHT22;9357;49.900;8.208;2022-09-09T07:47:05;19.00;99.90
18456;DHT22;9357;49.900;8.208;2022-09-09T07:48:44;19.00;99.90
18456;DHT22;9357;49.900;8.208;2022-09-09T07:50:17;19.10;99.90
18456;DHT22;9357;49.900;8.208;2022-09-09T07:51:50;19.30;99.90
18456;DHT22;9357;49.900;8.208;2022-09-09T07:53:23;19.60;99.90
18456;DHT22;9357;49.900;8.208;2022-09-09T07:54:56;19.90;99.90
18456;DHT22;9357;49.900;8.208;2022-09-09T07:56:30;20.20;99.90
18456;DHT22;9357;49.900;8.208;2022-09-09T07:58:05;20.40;99.90
18456;DHT22;9357;49.900;8.208;2022-09-09T07:59:38;20.50;99.90
18456;DHT22;9357;49.900;8.208;2022-09-09T08:01:13;20.50;99.90
18456;DHT22;9357;49.900;8.208;2022-09-09T08:02:45;20.50;99.90
18456;DHT22;9357;49.900;8.208;2022-09-09T08:04:19;20.50;99.90
18456;DHT22;9357;49.900;8.208;2022-09-09T08:05:52;20.70;99.90
18456;DHT22;9357;49.900;8.208;2022-09-09T08:07:24;20.80;99.90
18456;DHT22;9357;49.900;8.208;2022-09-09T08:08:57;20.90;99.90
18456;DHT22;9357;49.900;8.208;2022-09-09T08:10:30;21.00;99.90
18456;DHT22;9357;49.900;8.208;2022-09-09T08:12:03;21.10;99.90
18456;DHT22;9357;49.900;8.208;2022-09-09T08:13:38;21.20;99.90
18456;DHT22;9357;49.900;8.208;2022-09-09T08:15:11;21.30;99.90
18456;DHT22;9357;49.900;8.208;2022-09-09T08:16:47;21.60;99.90
18456;DHT22;9357;49.900;8.208;2022-09-09T08:18:20;21.80;99.90
18456;DHT22;9357;49.900;8.208;2022-09-09T08:19:53;21.90;99.90
18456;DHT22;9357;49.900;8.208;2022-09-09T08:21:28;22.00;99.90
18456;DHT22;9357;49.900;8.208;2022-09-09T08:23:01;22.10;99.90
18456;DHT22;9357;49.900;8.208;2022-09-09T08:24:34;22.20;99.90
18456;DHT22;9357;49.900;8.208;2022-09-09T08:26:11;22.10;99.90
18456;DHT22;9357;49.900;8.208;2022-09-09T08:27:44;22.10;99.90
18456;DHT22;9357;49.900;8.208;2022-09-09T08:29:19;22.00;99.90
18456;DHT22;9357;49.900;8.208;2022-09-09T08:30:51;22.00;99.90
18456;DHT22;9357;49.900;8.208;2022-09-09T08:32:24;22.10;99.90
18456;DHT22;9357;49.900;8.208;2022-09-09T08:33:58;22.20;99.90
18456;DHT22;9357;49.900;8.208;2022-09-09T08:35:31;22.30;99.90
18456;DHT22;9357;49.900;8.208;2022-09-09T08:37:04;22.30;99.90
18456;DHT22;9357;49.900;8.208;2022-09-09T08:38:37;22.30;99.90
18456;DHT22;9357;49.900;8.208;2022-09-09T08:40:19;22.20;99.90
18456;DHT22;9357;49.900;8.208;2022-09-09T08:44:13;21.90;99.90
18456;DHT22;9357;49.900;8.208;2022-09-09T08:45:55;21.80;99.90
18456;DHT22;9357;49.900;8.208;2022-09-09T08:47:35;21.70;99.90
18456;DHT22;9357;49.900;8.208;2022-09-09T08:49:37;21.70;99.90
18456;DHT22;9357;49.900;8.208;2022-09-09T08:51:12;21.70;99.90
18456;DHT22;9357;49.900;8.208;2022-09-09T08:52:51;21.80;99.90
18456;DHT22;9357;49.900;8.208;2022-09-09T08:54:26;22.00;99.90
18456;DHT22;9357;49.900;8.208;2022-09-09T08:56:24;22.00;99.90
18456;DHT22;9357;49.900;8.208;2022-09-09T08:57:58;22.10;99.90
18456;DHT22;9357;49.900;8.208;2022-09-09T08:59:32;22.10;99.90
18456;DHT22;9357;49.900;8.208;2022-09-09T09:01:41;22.10;99.90
18456;DHT22;9357;49.900;8.208;2022-09-09T09:03:21;22.00;99.90
18456;DHT22;9357;49.900;8.208;2022-09-09T09:05:02;22.00;99.90
18456;DHT22;9357;49.900;8.208;2022-09-09T09:06:47;21.90;99.90
18456;DHT22;9357;49.900;8.208;2022-09-09T09:08:27;21.90;99.90
18456;DHT22;9357;49.900;8.208;2022-09-09T09:10:08;21.80;99.90
18456;DHT22;9357;49.900;8.208;2022-09-09T09:12:10;21.90;99.90
18456;DHT22;9357;49.900;8.208;2022-09-09T09:13:52;22.00;99.90
18456;DHT22;9357;49.900;8.208;2022-09-09T09:15:31;22.30;99.90
18456;DHT22;9357;49.900;8.208;2022-09-09T09:17:12;22.50;99.90
18456;DHT22;9357;49.900;8.208;2022-09-09T09:18:47;22.70;99.90
18456;DHT22;9357;49.900;8.208;2022-09-09T09:20:26;22.80;99.90
18456;DHT22;9357;49.900;8.208;2022-09-09T09:22:05;22.90;99.90
18456;DHT22;9357;49.900;8.208;2022-09-09T09:23:41;23.10;99.90
18456;DHT22;9357;49.900;8.208;2022-09-09T09:25:18;23.20;99.90
18456;DHT22;9357;49.900;8.208;2022-09-09T09:26:51;23.30;99.90
18456;DHT22;9357;49.900;8.208;2022-09-09T09:28:26;23.30;99.90
18456;DHT22;9357;49.900;8.208;2022-09-09T09:30:01;23.30;99.90
18456;DHT22;9357;49.900;8.208;2022-09-09T09:31:56;23.40;99.90
18456;DHT22;9357;49.900;8.208;2022-09-09T09:33:38;23.50;99.90
18456;DHT22;9357;49.900;8.208;2022-09-09T09:35:16;23.60;99.90
18456;DHT22;9357;49.900;8.208;2022-09-09T09:36:53;23.70;99.90
18456;DHT22;9357;49.900;8.208;2022-09-09T09:38:28;23.80;99.90
18456;DHT22;9357;49.900;8.208;2022-09-09T09:40:22;23.80;99.90
18456;DHT22;9357;49.900;8.208;2022-09-09T09:41:55;23.80;99.90
18456;DHT22;9357;49.900;8.208;2022-09-09T09:43:30;23.90;99.90
18456;DHT22;9357;49.900;8.208;2022-09-09T09:45:16;23.90;99.90
18456;DHT22;9357;49.900;8.208;2022-09-09T09:47:04;24.00;99.90
18456;DHT22;9357;49.900;8.208;2022-09-09T09:48:38;24.20;99.90
18456;DHT22;9357;49.900;8.208;2022-09-09T09:50:19;24.40;99.90
18456;DHT22;9357;49.900;8.208;2022-09-09T09:51:52;24.50;99.90
18456;DHT22;9357;49.900;8.208;2022-09-09T09:53:26;24.60;99.90
18456;DHT22;9357;49.900;8.208;2022-09-09T09:55:03;24.70;99.90
18456;DHT22;9357;49.900;8.208;2022-09-09T09:56:39;24.80;99.90
18456;DHT22;9357;49.900;8.208;2022-09-09T09:58:15;25.00;99.90
18456;DHT22;9357;49.900;8.208;2022-09-09T09:59:59;25.10;99.90
18456;DHT22;9357;49.900;8.208;2022-09-09T10:01:34;25.10;99.90
18456;DHT22;9357;49.900;8.208;2022-09-09T10:03:17;25.00;99.90
18456;DHT22;9357;49.900;8.208;2022-09-09T10:05:03;24.90;99.90
18456;DHT22;9357;49.900;8.208;2022-09-09T10:06:37;24.80;99.90
18456;DHT22;9357;49.900;8.208;2022-09-09T10:08:13;24.70;99.90
18456;DHT22;9357;49.900;8.208;2022-09-09T10:09:54;24.50;99.90
18456;DHT22;9357;49.900;8.208;2022-09-09T10:11:35;24.40;99.90
18456;DHT22;9357;49.900;8.208;2022-09-09T10:13:15;24.20;99.90
18456;DHT22;9357;49.900;8.208;2022-09-09T10:14:59;24.10;99.90
18456;DHT22;9357;49.900;8.208;2022-09-09T10:16:45;23.90;99.90
18456;DHT22;9357;49.900;8.208;2022-09-09T10:18:42;23.90;99.90